createdAt,value
2019-03-08T00:02:23.774Z,10.22
2019-03-08T00:04:51.967Z,10.22
2019-03-08T00:07:20.133Z,10.16
2019-03-08T00:09:48.647Z,10.23
2019-03-08T00:12:16.821Z,10.15
2019-03-08T00:14:45.009Z,10.18
2019-03-08T00:17:13.194Z,10.28
2019-03-08T00:19:41.353Z,10.37
2019-03-08T00:22:09.582Z,10.39
2019-03-08T00:24:37.845Z,10.37
2019-03-08T00:27:06.005Z,10.32
2019-03-08T00:29:34.177Z,10.33
2019-03-08T00:32:02.364Z,10.37
2019-03-08T00:34:30.525Z,10.37
2019-03-08T00:36:58.714Z,10.32
2019-03-08T00:39:27.136Z,10.35
2019-03-08T00:41:55.497Z,10.34
2019-03-08T00:44:23.657Z,10.30
2019-03-08T00:46:51.817Z,10.30
2019-03-08T00:49:20.010Z,10.35
2019-03-08T00:51:48.165Z,10.28
2019-03-08T00:54:16.324Z,10.39
2019-03-08T00:56:44.694Z,10.43
2019-03-08T00:59:12.854Z,10.49
2019-03-08T01:01:41.034Z,10.39
2019-03-08T01:04:09.237Z,10.49
2019-03-08T01:06:37.648Z,10.45
2019-03-08T01:09:07.875Z,10.44
2019-03-08T01:11:36.329Z,10.41
2019-03-08T01:14:04.567Z,10.46
2019-03-08T01:16:32.814Z,10.37
2019-03-08T01:19:00.993Z,10.30
2019-03-08T01:21:29.156Z,10.34
2019-03-08T01:23:57.343Z,10.29
2019-03-08T01:26:25.901Z,10.29
2019-03-08T01:28:54.085Z,10.26
2019-03-08T01:31:22.241Z,10.30
2019-03-08T01:33:50.431Z,10.25
2019-03-08T01:36:18.594Z,10.28
2019-03-08T01:38:46.764Z,10.23
2019-03-08T01:41:14.930Z,10.31
2019-03-08T01:43:43.113Z,10.09
2019-03-08T01:46:11.590Z,10.24
2019-03-08T01:48:39.776Z,10.11
2019-03-08T01:51:10.605Z,10.10
2019-03-08T01:53:38.785Z,10.20
2019-03-08T01:56:07.330Z,10.11
2019-03-08T01:58:35.521Z,10.14
2019-03-08T02:01:03.767Z,10.04
2019-03-08T02:03:31.960Z,10.03
2019-03-08T02:06:00.150Z,10.08
2019-03-08T02:08:28.315Z,10.12
2019-03-08T02:10:57.002Z,10.22
2019-03-08T02:13:25.189Z,10.02
2019-03-08T02:15:53.373Z,9.99
2019-03-08T02:18:21.556Z,10.07
2019-03-08T02:20:49.717Z,10.18
2019-03-08T02:23:17.892Z,10.10
2019-03-08T02:25:46.060Z,10.06
2019-03-08T02:28:14.243Z,10.15
2019-03-08T02:30:42.472Z,10.09
2019-03-08T02:33:10.673Z,10.06
2019-03-08T02:35:38.905Z,9.88
2019-03-08T02:38:07.134Z,9.88
2019-03-08T02:40:36.751Z,9.97
2019-03-08T02:43:10.784Z,9.93
2019-03-08T02:45:39.311Z,10.02
2019-03-08T02:48:07.490Z,10.00
2019-03-08T02:50:35.679Z,9.91
2019-03-08T02:53:04.674Z,9.96
2019-03-08T02:55:33.072Z,9.97
2019-03-08T02:58:01.503Z,9.94
2019-03-08T03:00:33.057Z,10.08
2019-03-08T03:03:01.237Z,9.96
2019-03-08T03:05:29.399Z,9.93
2019-03-08T03:07:57.637Z,10.03
2019-03-08T03:10:25.831Z,10.01
2019-03-08T03:12:54.330Z,9.97
2019-03-08T03:15:22.537Z,9.95
2019-03-08T03:17:50.693Z,9.93
2019-03-08T03:20:18.941Z,10.02
2019-03-08T03:22:47.097Z,9.87
2019-03-08T03:25:15.937Z,9.80
2019-03-08T03:27:44.089Z,9.82
2019-03-08T03:30:15.057Z,9.90
2019-03-08T03:32:43.612Z,9.98
2019-03-08T03:35:11.859Z,9.90
2019-03-08T03:37:40.030Z,9.93
2019-03-08T03:40:16.794Z,9.96
2019-03-08T03:42:44.954Z,9.84
2019-03-08T03:45:18.720Z,9.86
2019-03-08T03:47:46.958Z,9.80
2019-03-08T03:50:15.689Z,9.71
2019-03-08T03:52:43.871Z,9.64
2019-03-08T03:55:14.183Z,9.75
2019-03-08T03:57:42.353Z,9.68
2019-03-08T04:00:16.417Z,9.77
2019-03-08T04:02:44.651Z,9.79
2019-03-08T04:05:13.306Z,9.73
2019-03-08T04:07:41.488Z,9.65
2019-03-08T04:10:12.302Z,9.54
2019-03-08T04:12:40.466Z,9.39
2019-03-08T04:15:11.661Z,9.35
2019-03-08T04:17:39.825Z,9.36
2019-03-08T04:20:16.467Z,9.28
2019-03-08T04:22:44.959Z,9.20
2019-03-08T04:25:14.274Z,9.22
2019-03-08T04:27:42.509Z,9.11
2019-03-08T04:30:15.793Z,9.15
2019-03-08T04:32:44.301Z,9.21
2019-03-08T04:35:12.458Z,9.19
2019-03-08T04:37:41.055Z,9.22
2019-03-08T04:40:11.156Z,9.45
2019-03-08T04:42:39.410Z,9.50
2019-03-08T04:45:16.042Z,9.46
2019-03-08T04:47:44.918Z,9.39
2019-03-08T04:50:15.078Z,9.34
2019-03-08T04:52:43.257Z,9.26
2019-03-08T04:55:14.129Z,9.25
2019-03-08T04:57:42.304Z,9.31
2019-03-08T05:00:15.521Z,9.23
2019-03-08T05:02:43.689Z,9.26
2019-03-08T05:05:12.014Z,9.33
2019-03-08T05:07:40.227Z,9.16
2019-03-08T05:10:16.308Z,8.96
2019-03-08T05:12:44.570Z,8.90
2019-03-08T05:15:13.152Z,8.77
2019-03-08T05:17:41.430Z,8.88
2019-03-08T05:20:10.650Z,8.84
2019-03-08T05:22:38.896Z,8.42
2019-03-08T05:25:10.003Z,8.12
2019-03-08T05:27:38.251Z,7.91
2019-03-08T05:30:16.647Z,8.00
2019-03-08T05:32:44.956Z,7.90
2019-03-08T05:35:14.490Z,7.83
2019-03-08T05:37:42.722Z,7.76
2019-03-08T05:40:13.048Z,7.40
2019-03-08T05:42:41.201Z,7.21
2019-03-08T05:45:11.125Z,7.28
2019-03-08T05:47:39.312Z,7.27
2019-03-08T05:50:09.247Z,7.24
2019-03-08T05:52:37.414Z,7.30
2019-03-08T05:55:10.955Z,7.43
2019-03-08T05:57:39.434Z,7.59
2019-03-08T06:00:13.904Z,7.72
2019-03-08T06:02:42.078Z,7.70
2019-03-08T06:05:10.328Z,7.73
2019-03-08T06:07:38.777Z,7.71
2019-03-08T06:10:36.742Z,7.56
2019-03-08T06:13:08.186Z,7.44
2019-03-08T06:15:36.377Z,7.40
2019-03-08T06:18:04.766Z,7.45
2019-03-08T06:20:33.238Z,7.46
2019-03-08T06:23:01.715Z,7.46
2019-03-08T06:25:29.888Z,7.59
2019-03-08T06:27:58.164Z,7.52
2019-03-08T06:30:26.350Z,7.62
2019-03-08T06:32:54.630Z,7.63
2019-03-08T06:35:22.835Z,7.75
2019-03-08T06:37:51.001Z,7.71
2019-03-08T06:40:19.202Z,7.86
2019-03-08T06:42:47.385Z,7.89
2019-03-08T06:45:17.690Z,8.03
2019-03-08T06:47:46.477Z,8.13
2019-03-08T06:50:15.697Z,8.17
2019-03-08T06:52:43.960Z,7.99
2019-03-08T06:55:14.265Z,8.08
2019-03-08T06:57:42.785Z,8.00
2019-03-08T07:00:15.928Z,8.01
2019-03-08T07:02:44.093Z,8.12
2019-03-08T07:05:12.285Z,8.26
2019-03-08T07:07:41.596Z,8.18
2019-03-08T07:10:09.771Z,8.16
2019-03-08T07:12:37.950Z,8.09
2019-03-08T07:15:06.906Z,8.12
2019-03-08T07:17:35.545Z,8.23
2019-03-08T07:20:05.834Z,8.17
2019-03-08T07:22:50.975Z,8.28
2019-03-08T07:25:20.813Z,8.30
2019-03-08T07:27:51.077Z,8.07
2019-03-08T07:30:23.667Z,8.10
2019-03-08T07:32:53.556Z,8.35
2019-03-08T07:35:35.746Z,8.26
2019-03-08T07:38:22.109Z,8.31
2019-03-08T07:40:51.939Z,8.32
2019-03-08T07:43:33.646Z,8.30
2019-03-08T07:46:09.403Z,8.53
2019-03-08T07:48:45.189Z,8.67
2019-03-08T07:51:17.742Z,8.75
2019-03-08T07:53:47.651Z,8.81
2019-03-08T07:56:17.476Z,8.93
2019-03-08T07:59:02.877Z,9.09
2019-03-08T08:01:32.733Z,9.16
2019-03-08T08:04:20.087Z,9.26
2019-03-08T08:06:58.714Z,9.41
2019-03-08T08:09:44.837Z,9.62
2019-03-08T08:12:26.958Z,10.00
2019-03-08T08:15:03.064Z,10.81
2019-03-08T08:17:50.951Z,12.08
2019-03-08T08:20:32.893Z,13.18
2019-03-08T08:23:02.823Z,12.88
2019-03-08T08:25:36.785Z,13.32
2019-03-08T08:28:19.457Z,12.74
2019-03-08T08:30:58.334Z,12.19
2019-03-08T08:33:33.931Z,11.89
2019-03-08T08:36:09.462Z,11.83
2019-03-08T08:41:26.760Z,11.55
2019-03-08T08:44:08.329Z,11.90
2019-03-08T08:46:53.145Z,11.81
2019-03-08T08:49:22.961Z,11.78
2019-03-08T08:52:07.758Z,12.17
2019-03-08T08:54:37.906Z,11.58
2019-03-08T08:57:07.745Z,11.05
2019-03-08T08:59:40.730Z,11.80
2019-03-08T09:02:13.517Z,12.74
2019-03-08T09:04:58.625Z,13.50
2019-03-08T09:07:31.217Z,13.30
2019-03-08T09:10:19.483Z,13.71
2019-03-08T09:12:55.023Z,15.51
2019-03-08T09:15:37.050Z,14.80
2019-03-08T09:18:16.143Z,15.97
2019-03-08T09:21:02.386Z,16.67
2019-03-08T09:23:38.134Z,14.51
2019-03-08T09:26:23.881Z,12.51
2019-03-08T09:29:02.742Z,11.80
2019-03-08T09:31:50.786Z,11.65
2019-03-08T09:34:37.461Z,11.51
2019-03-08T09:37:07.294Z,11.61
2019-03-08T09:39:46.286Z,11.76
2019-03-08T09:42:16.107Z,11.39
2019-03-08T09:45:02.200Z,11.64
2019-03-08T09:47:48.594Z,11.58
2019-03-08T09:50:18.430Z,11.54
2019-03-08T09:52:50.941Z,12.95
2019-03-08T09:55:32.535Z,12.66
2019-03-08T09:58:04.820Z,13.86
2019-03-08T10:00:34.781Z,13.66
2019-03-08T10:03:16.634Z,13.43
2019-03-08T10:05:46.478Z,13.59
2019-03-08T10:08:19.275Z,15.09
2019-03-08T10:10:49.158Z,15.80
2019-03-08T10:13:21.853Z,15.56
2019-03-08T10:15:57.794Z,15.96
2019-03-08T10:18:40.320Z,16.57
2019-03-08T10:21:12.681Z,17.17
2019-03-08T10:23:42.533Z,17.53
2019-03-08T10:26:12.342Z,17.47
2019-03-08T10:28:45.085Z,18.20
2019-03-08T10:31:24.099Z,18.77
2019-03-08T10:34:02.977Z,18.57
2019-03-08T10:36:35.557Z,18.41
2019-03-08T10:39:09.693Z,19.08
2019-03-08T10:41:42.225Z,18.94
2019-03-08T10:44:15.582Z,17.32
2019-03-08T10:46:51.317Z,14.99
2019-03-08T10:49:23.789Z,14.82
2019-03-08T10:52:17.381Z,14.54
2019-03-08T10:54:40.474Z,13.91
2019-03-08T10:57:16.278Z,13.22
2019-03-08T10:59:48.763Z,14.56
2019-03-08T11:02:27.982Z,13.05
2019-03-08T11:05:00.772Z,12.76
2019-03-08T11:07:33.400Z,12.37
2019-03-08T11:10:05.882Z,12.14
2019-03-08T11:12:35.722Z,12.07
2019-03-08T11:15:26.321Z,12.21
2019-03-08T11:17:59.106Z,11.97
2019-03-08T11:20:48.660Z,11.95
2019-03-08T11:23:34.589Z,11.99
2019-03-08T11:26:20.289Z,16.17
2019-03-08T11:28:59.376Z,15.12
2019-03-08T11:31:47.639Z,14.31
2019-03-08T11:34:36.174Z,14.21
2019-03-08T11:37:06.295Z,15.28
2019-03-08T11:39:36.162Z,15.35
2019-03-08T11:42:08.879Z,15.25
2019-03-08T11:44:55.170Z,14.98
2019-03-08T11:47:27.737Z,15.52
2019-03-08T11:50:06.162Z,14.50
2019-03-08T11:52:44.764Z,14.04
2019-03-08T11:55:23.753Z,13.93
2019-03-08T11:58:02.853Z,14.53
2019-03-08T12:00:44.903Z,15.15
2019-03-08T12:03:15.265Z,14.71
2019-03-08T12:05:49.865Z,14.27
2019-03-08T12:08:31.647Z,13.96
2019-03-08T12:11:16.564Z,13.74
2019-03-08T12:14:02.798Z,13.32
2019-03-08T12:16:38.755Z,13.13
2019-03-08T12:19:08.865Z,12.75
2019-03-08T12:21:55.592Z,12.67
2019-03-08T12:24:25.501Z,12.73
2019-03-08T12:26:55.422Z,12.88
2019-03-08T12:29:34.277Z,13.17
2019-03-08T12:32:04.119Z,13.71
2019-03-08T12:34:42.973Z,13.93
2019-03-08T12:37:12.801Z,13.86
2019-03-08T12:39:48.895Z,13.67
2019-03-08T12:42:18.729Z,13.51
2019-03-08T12:44:51.250Z,13.59
2019-03-08T12:47:36.134Z,13.05
2019-03-08T12:50:13.759Z,12.61
2019-03-08T12:52:52.656Z,12.86
2019-03-08T12:55:37.112Z,13.36
2019-03-08T12:58:13.109Z,13.47
2019-03-08T13:00:58.881Z,13.46
2019-03-08T13:03:45.453Z,13.73
2019-03-08T13:06:18.066Z,14.98
2019-03-08T13:08:53.790Z,14.79
2019-03-08T13:11:21.977Z,14.88
2019-03-08T13:13:50.703Z,14.45
2019-03-08T13:16:19.080Z,14.63
2019-03-08T13:18:47.274Z,14.79
2019-03-08T13:21:15.484Z,14.56
2019-03-08T13:23:43.742Z,14.48
2019-03-08T13:26:11.925Z,14.76
2019-03-08T13:28:40.107Z,15.09
2019-03-08T13:31:08.566Z,14.77
2019-03-08T13:33:36.773Z,13.89
2019-03-08T13:36:05.217Z,13.87
2019-03-08T13:38:33.419Z,13.45
2019-03-08T13:41:01.641Z,13.24
2019-03-08T13:43:29.830Z,13.24
2019-03-08T13:45:58.302Z,12.78
2019-03-08T13:48:26.477Z,12.52
2019-03-08T13:50:54.678Z,12.77
2019-03-08T13:53:22.867Z,12.63
2019-03-08T13:55:51.060Z,12.83
2019-03-08T13:58:19.234Z,13.08
2019-03-08T14:00:47.702Z,13.30
2019-03-08T14:03:16.157Z,13.54
2019-03-08T14:05:44.622Z,13.53
2019-03-08T14:08:12.826Z,13.73
2019-03-08T14:10:41.283Z,13.86
2019-03-08T14:13:09.768Z,13.98
2019-03-08T14:15:38.242Z,14.02
2019-03-08T14:18:06.409Z,13.89
2019-03-08T14:20:34.681Z,14.11
2019-03-08T14:23:02.870Z,13.90
2019-03-08T14:25:31.343Z,14.00
2019-03-08T14:27:59.518Z,13.94
2019-03-08T14:30:32.144Z,14.37
2019-03-08T14:33:01.585Z,14.73
2019-03-08T14:35:30.788Z,14.67
2019-03-08T14:37:59.377Z,14.85
2019-03-08T14:40:29.223Z,14.36
2019-03-08T14:43:02.380Z,14.20
2019-03-08T14:45:32.242Z,14.02
2019-03-08T14:48:00.432Z,14.23
2019-03-08T14:50:31.872Z,15.75
2019-03-08T14:52:58.863Z,15.19
2019-03-08T14:55:27.350Z,14.46
2019-03-08T14:57:58.820Z,13.83
2019-03-08T15:00:29.119Z,13.79
2019-03-08T15:02:55.362Z,13.64
2019-03-08T15:05:23.567Z,13.83
2019-03-08T15:07:51.761Z,13.51
2019-03-08T15:10:20.369Z,13.33
2019-03-08T15:12:49.472Z,13.26
2019-03-08T15:15:17.877Z,13.31
2019-03-08T15:17:49.747Z,13.21
2019-03-08T15:20:17.918Z,13.08
2019-03-08T15:22:46.487Z,13.25
2019-03-08T15:25:15.990Z,13.37
2019-03-08T15:27:44.200Z,13.53
2019-03-08T15:30:17.837Z,13.80
2019-03-08T15:32:46.281Z,13.81
2019-03-08T15:35:16.760Z,13.75
2019-03-08T15:37:45.273Z,13.74
2019-03-08T15:40:21.314Z,13.39
2019-03-08T15:42:49.962Z,13.40
2019-03-08T15:45:18.303Z,13.23
2019-03-08T15:47:46.777Z,12.95
2019-03-08T15:50:20.491Z,12.90
2019-03-08T15:52:48.753Z,12.97
2019-03-08T15:55:17.031Z,13.03
2019-03-08T15:57:45.462Z,12.98
2019-03-08T16:00:21.249Z,13.05
2019-03-08T16:02:49.899Z,13.03
2019-03-08T16:05:19.163Z,13.00
2019-03-08T16:07:47.349Z,13.08
2019-03-08T16:10:19.684Z,13.06
2019-03-08T16:12:47.942Z,12.93
2019-03-08T16:15:16.582Z,12.87
2019-03-08T16:17:44.832Z,12.77
2019-03-08T16:20:18.609Z,12.80
2019-03-08T16:22:46.797Z,12.73
2019-03-08T16:25:18.065Z,12.71
2019-03-08T16:27:46.264Z,12.57
2019-03-08T16:30:18.228Z,12.62
2019-03-08T16:32:57.141Z,12.51
2019-03-08T16:35:27.089Z,12.37
2019-03-08T16:38:13.266Z,12.22
2019-03-08T16:40:42.857Z,12.19
2019-03-08T16:43:18.434Z,12.17
2019-03-08T16:45:54.530Z,12.11
2019-03-08T16:48:21.893Z,11.94
2019-03-08T16:51:00.302Z,11.62
2019-03-08T16:53:37.573Z,11.25
2019-03-08T16:56:11.894Z,10.98
2019-03-08T16:58:41.722Z,10.75
2019-03-08T17:01:23.683Z,10.72
2019-03-08T17:03:58.949Z,10.69
2019-03-08T17:06:31.724Z,10.71
2019-03-08T17:09:07.529Z,10.79
2019-03-08T17:11:40.305Z,10.79
2019-03-08T17:14:19.153Z,10.90
2019-03-08T17:16:52.003Z,10.85
2019-03-08T17:19:27.693Z,10.68
2019-03-08T17:21:57.521Z,10.61
2019-03-08T17:24:36.266Z,10.47
2019-03-08T17:27:12.550Z,10.49
2019-03-08T17:29:45.343Z,10.43
2019-03-08T17:32:17.625Z,10.49
2019-03-08T17:34:56.493Z,10.31
2019-03-08T17:37:29.078Z,10.42
2019-03-08T17:39:58.961Z,10.37
2019-03-08T17:42:43.769Z,10.30
2019-03-08T17:45:29.254Z,10.18
2019-03-08T17:48:08.037Z,10.01
2019-03-08T17:50:37.864Z,9.93
2019-03-08T17:53:16.922Z,9.98
2019-03-08T17:55:47.005Z,10.06
2019-03-08T17:58:33.042Z,10.00
2019-03-08T18:01:19.441Z,10.05
2019-03-08T18:03:49.547Z,10.07
2019-03-08T18:06:22.077Z,10.14
2019-03-08T18:08:51.903Z,10.14
2019-03-08T18:11:27.546Z,10.41
2019-03-08T18:14:00.070Z,10.38
2019-03-08T18:16:46.450Z,10.35
2019-03-08T18:19:18.989Z,10.41
2019-03-08T18:21:55.297Z,10.41
2019-03-08T18:24:37.397Z,10.35
2019-03-08T18:27:25.311Z,10.28
2019-03-08T18:30:11.614Z,10.26
2019-03-08T18:32:50.305Z,10.33
2019-03-08T18:35:20.133Z,10.22
2019-03-08T18:38:06.222Z,10.31
2019-03-08T18:40:54.421Z,10.30
2019-03-08T18:43:33.258Z,10.37
2019-03-08T18:46:18.693Z,10.42
2019-03-08T18:48:54.230Z,10.46
2019-03-08T18:51:33.289Z,10.52
2019-03-08T18:54:03.100Z,10.39
2019-03-08T18:56:47.657Z,10.33
2019-03-08T18:59:17.471Z,10.36
2019-03-08T19:02:05.513Z,10.44
2019-03-08T19:04:38.021Z,10.41
2019-03-08T19:07:24.814Z,10.25
2019-03-08T19:09:54.626Z,10.26
2019-03-08T19:12:24.429Z,10.30
2019-03-08T19:15:12.652Z,10.27
2019-03-08T19:17:57.381Z,10.43
2019-03-08T19:20:38.970Z,10.38
2019-03-08T19:23:17.321Z,10.44
2019-03-08T19:26:03.097Z,10.59
2019-03-08T19:28:49.665Z,10.35
2019-03-08T19:31:25.469Z,10.41
2019-03-08T19:34:01.465Z,10.49
2019-03-08T19:36:31.473Z,10.47
2019-03-08T19:39:17.592Z,10.45
2019-03-08T19:41:47.429Z,10.49
2019-03-08T19:44:29.478Z,10.40
2019-03-08T19:47:11.302Z,10.38
2019-03-08T19:49:41.119Z,10.35
2019-03-08T19:52:27.445Z,10.34
2019-03-08T19:54:57.262Z,10.30
2019-03-08T19:57:32.851Z,10.28
2019-03-08T20:00:17.839Z,10.27
2019-03-08T20:02:47.670Z,10.37
2019-03-08T20:05:22.969Z,10.32
2019-03-08T20:07:55.750Z,10.31
2019-03-08T20:10:34.457Z,10.21
2019-03-08T20:13:07.245Z,10.25
2019-03-08T20:15:37.390Z,10.22
2019-03-08T20:18:07.971Z,10.16
2019-03-08T20:20:46.886Z,10.18
2019-03-08T20:23:16.713Z,10.17
2019-03-08T20:25:52.477Z,10.23
2019-03-08T20:28:25.414Z,10.21
2019-03-08T20:30:57.686Z,10.21
2019-03-08T20:33:39.448Z,10.20
2019-03-08T20:36:21.227Z,10.17
2019-03-08T20:38:59.819Z,10.11
2019-03-08T20:41:32.617Z,10.04
2019-03-08T20:44:05.441Z,9.99
2019-03-08T20:46:38.330Z,9.92
2019-03-08T20:49:06.789Z,9.88
2019-03-08T20:51:34.964Z,9.83
2019-03-08T20:54:03.542Z,9.69
2019-03-08T20:56:31.789Z,9.71
2019-03-08T20:58:59.981Z,9.72
2019-03-08T21:01:28.162Z,9.80
2019-03-08T21:03:56.378Z,9.78
2019-03-08T21:06:24.818Z,9.71
2019-03-08T21:08:53.293Z,9.71
2019-03-08T21:11:21.485Z,9.54
2019-03-08T21:13:50.058Z,9.49
2019-03-08T21:16:18.242Z,9.61
2019-03-08T21:18:46.418Z,9.84
2019-03-08T21:21:14.611Z,9.76
2019-03-08T21:23:42.776Z,9.70
2019-03-08T21:26:10.957Z,9.78
2019-03-08T21:28:39.517Z,9.91
2019-03-08T21:31:07.710Z,9.94
2019-03-08T21:33:35.909Z,9.98
2019-03-08T21:36:04.337Z,10.14
2019-03-08T21:38:32.542Z,10.15
2019-03-08T21:41:00.732Z,10.16
2019-03-08T21:43:28.897Z,10.23
2019-03-08T21:45:57.077Z,10.23
2019-03-08T21:48:25.293Z,10.28
2019-03-08T21:50:53.495Z,10.25
2019-03-08T21:53:21.694Z,10.30
2019-03-08T21:55:49.877Z,10.41
2019-03-08T21:58:18.117Z,10.32
2019-03-08T22:00:46.350Z,10.28
2019-03-08T22:03:14.546Z,10.40
2019-03-08T22:05:42.765Z,10.44
2019-03-08T22:08:17.430Z,10.57
2019-03-08T22:10:48.431Z,10.49
2019-03-08T22:13:16.955Z,10.53
2019-03-08T22:15:45.149Z,10.60
2019-03-08T22:18:13.340Z,10.61
2019-03-08T22:20:41.530Z,10.55
2019-03-08T22:23:09.707Z,10.44
2019-03-08T22:25:37.868Z,10.53
2019-03-08T22:28:06.060Z,10.52
2019-03-08T22:30:34.230Z,10.63
2019-03-08T22:33:02.412Z,10.59
2019-03-08T22:35:30.917Z,10.61
2019-03-08T22:37:59.117Z,10.52
2019-03-08T22:40:27.294Z,10.51
2019-03-08T22:42:55.479Z,10.60
2019-03-08T22:45:23.921Z,10.59
2019-03-08T22:47:52.119Z,10.65
2019-03-08T22:50:20.666Z,10.69
2019-03-08T22:52:48.863Z,10.74
2019-03-08T22:55:17.029Z,10.63
2019-03-08T22:57:45.225Z,10.70
2019-03-08T23:00:54.010Z,10.68
2019-03-08T23:03:23.837Z,10.58
2019-03-08T23:05:52.261Z,10.64
2019-03-08T23:08:20.442Z,10.68
2019-03-08T23:10:48.789Z,10.74
2019-03-08T23:13:16.973Z,10.70
2019-03-08T23:15:45.435Z,10.76
2019-03-08T23:18:13.622Z,10.62
2019-03-08T23:20:41.809Z,10.74
2019-03-08T23:23:10.334Z,10.67
2019-03-08T23:25:38.511Z,10.73
2019-03-08T23:28:17.409Z,10.71
2019-03-08T23:30:47.239Z,10.68
2019-03-08T23:33:15.406Z,10.68
2019-03-08T23:35:43.601Z,10.81
2019-03-08T23:38:12.078Z,10.80
2019-03-08T23:40:40.266Z,10.85
2019-03-08T23:43:08.761Z,10.81
2019-03-08T23:45:37.314Z,10.91
2019-03-08T23:48:05.853Z,10.78
2019-03-08T23:50:34.047Z,10.85
2019-03-08T23:53:02.244Z,10.83
2019-03-08T23:55:30.419Z,10.88
2019-03-08T23:57:58.606Z,10.97
